Time;durP1;ratioP1;P1;durP2;ratioP2;P2;SDS_P1;SDS_P2;PMS_P1;PMS_P2;Temp;Humidity;BMP_temperature;BMP_pressure;BME280_temperature;BME280_humidity;BME280_pressure;Samples;Min_cycle;Max_cycle;Signal;HPM_P1;HPM_P2
2021/04/24 00:00:11;;;;;;;26.20;8.93;;;5.90;99.90;;;;;;5017840;28;20495;-87
2021/04/24 00:02:44;;;;;;;25.10;9.52;;;5.80;99.90;;;;;;5028060;28;20057;-86
2021/04/24 00:05:23;;;;;;;17.53;9.60;;;5.80;99.90;;;;;;5036299;28;20049;-86
2021/04/24 00:07:54;;;;;;;23.33;8.75;;;5.80;99.90;;;;;;5003831;28;20077;-85
2021/04/24 00:10:22;;;;;;;21.75;9.23;;;5.70;99.90;;;;;;5036576;28;20033;-86
2021/04/24 00:12:48;;;;;;;21.85;8.68;;;5.70;99.90;;;;;;5035561;28;20049;-86
2021/04/24 00:15:15;;;;;;;24.10;9.30;;;5.60;99.90;;;;;;5034357;28;20032;-86
2021/04/24 00:17:42;;;;;;;21.60;8.82;;;5.50;99.90;;;;;;5034020;28;20049;-86
2021/04/24 00:20:13;;;;;;;16.08;7.68;;;5.50;99.90;;;;;;5030885;28;20064;-86
2021/04/24 00:22:41;;;;;;;18.33;7.70;;;5.40;99.90;;;;;;5032783;28;20381;-85
2021/04/24 00:25:08;;;;;;;19.58;8.32;;;5.30;99.90;;;;;;5047914;28;20046;-86
2021/04/24 00:27:35;;;;;;;23.13;8.07;;;5.30;99.90;;;;;;5034663;28;20044;-85
2021/04/24 00:30:01;;;;;;;20.42;7.70;;;5.20;99.90;;;;;;5034179;28;20053;-86
2021/04/24 00:32:27;;;;;;;21.02;8.55;;;5.20;99.90;;;;;;5051172;28;20080;-86
2021/04/24 00:34:54;;;;;;;20.67;9.15;;;5.20;99.90;;;;;;5037265;28;20041;-85
2021/04/24 00:37:21;;;;;;;22.48;8.30;;;5.20;99.90;;;;;;5037907;28;20054;-85
2021/04/24 00:39:47;;;;;;;19.05;7.88;;;5.10;99.90;;;;;;5050786;28;20095;-86
2021/04/24 00:42:13;;;;;;;24.67;8.50;;;5.10;99.90;;;;;;5037156;28;20053;-84
2021/04/24 00:44:51;;;;;;;19.20;7.88;;;5.00;99.90;;;;;;5053343;28;20107;-86
2021/04/24 00:47:21;;;;;;;17.73;7.68;;;5.00;99.90;;;;;;5023537;28;20065;-86
2021/04/24 00:49:48;;;;;;;20.75;8.43;;;5.00;99.90;;;;;;5046045;28;20061;-85
2021/04/24 00:52:15;;;;;;;22.02;8.70;;;4.90;99.90;;;;;;5034108;28;20123;-86
2021/04/24 00:54:41;;;;;;;20.13;7.93;;;4.90;99.90;;;;;;5048425;28;20069;-84
2021/04/24 00:57:08;;;;;;;19.50;8.65;;;4.90;99.90;;;;;;5035434;28;20071;-86
2021/04/24 00:59:37;;;;;;;22.05;8.85;;;4.90;99.90;;;;;;5018274;28;20064;-85
2021/04/24 01:02:05;;;;;;;19.83;9.13;;;4.90;99.90;;;;;;5029045;28;20117;-86
2021/04/24 01:04:32;;;;;;;17.30;8.55;;;4.90;99.90;;;;;;5049233;28;20041;-85
2021/04/24 01:06:59;;;;;;;21.00;7.88;;;4.90;99.90;;;;;;5035742;28;20057;-86
2021/04/24 01:09:26;;;;;;;20.80;8.73;;;4.80;99.90;;;;;;5030791;28;20050;-85
2021/04/24 01:11:55;;;;;;;26.83;11.25;;;4.80;99.90;;;;;;5033355;28;20068;-86
2021/04/24 01:14:21;;;;;;;23.85;9.73;;;4.80;99.90;;;;;;5049449;28;20073;-85
2021/04/24 01:16:47;;;;;;;26.85;10.48;;;4.80;99.90;;;;;;5030870;28;20042;-85
2021/04/24 01:19:15;;;;;;;22.95;10.40;;;4.80;99.90;;;;;;5047388;28;20049;-85
2021/04/24 01:21:42;;;;;;;28.35;10.75;;;4.80;99.90;;;;;;5033324;28;20054;-85
2021/04/24 01:24:10;;;;;;;21.00;9.07;;;4.70;99.90;;;;;;5031895;28;20046;-85
2021/04/24 01:26:36;;;;;;;20.92;10.05;;;4.70;99.90;;;;;;5048629;28;20113;-85
2021/04/24 01:29:04;;;;;;;22.50;8.95;;;4.60;99.90;;;;;;5050976;28;20113;-85
2021/04/24 01:31:34;;;;;;;22.30;8.77;;;4.60;99.90;;;;;;5036721;28;20049;-85
2021/04/24 01:34:03;;;;;;;23.48;8.85;;;4.50;99.90;;;;;;5028662;28;20045;-85
2021/04/24 01:36:30;;;;;;;21.92;8.65;;;4.50;99.90;;;;;;5045917;28;20068;-85
2021/04/24 01:38:57;;;;;;;20.75;8.65;;;4.40;99.90;;;;;;5037001;28;20132;-85
2021/04/24 01:41:23;;;;;;;19.58;8.15;;;4.40;99.90;;;;;;5030538;28;20076;-86
2021/04/24 01:43:54;;;;;;;18.58;8.30;;;4.40;99.90;;;;;;5048749;28;20049;-85
2021/04/24 01:46:22;;;;;;;19.63;8.20;;;4.30;99.90;;;;;;5032059;28;20038;-85
2021/04/24 01:48:49;;;;;;;24.25;8.85;;;4.30;99.90;;;;;;5035682;28;20596;-85
2021/04/24 01:51:15;;;;;;;22.27;8.52;;;4.20;99.90;;;;;;5031722;28;20029;-85
2021/04/24 01:53:46;;;;;;;17.65;8.18;;;4.20;99.90;;;;;;5033601;28;20123;-84
2021/04/24 01:56:53;;;;;;;22.23;7.97;;;4.10;99.90;;;;;;5030899;28;20061;-85
2021/04/24 01:59:22;;;;;;;21.23;7.80;;;4.10;99.90;;;;;;5051109;28;20065;-85
2021/04/24 02:01:52;;;;;;;19.27;7.95;;;4.10;99.90;;;;;;5035716;28;20053;-85
2021/04/24 02:04:22;;;;;;;21.90;7.53;;;4.10;99.90;;;;;;5043966;28;20042;-85
2021/04/24 02:06:48;;;;;;;19.80;8.75;;;4.00;99.90;;;;;;5046784;28;20116;-85
2021/04/24 02:09:17;;;;;;;19.63;8.07;;;4.00;99.90;;;;;;5032574;28;20140;-85
2021/04/24 02:12:11;;;;;;;24.10;9.30;;;4.00;99.90;;;;;;5051642;28;20136;-85
2021/04/24 02:14:48;;;;;;;24.50;9.15;;;4.00;99.90;;;;;;5051678;28;20033;-86
2021/04/24 02:17:18;;;;;;;18.13;8.63;;;4.00;99.90;;;;;;5026395;28;20573;-85
2021/04/24 02:19:46;;;;;;;23.67;9.35;;;4.00;99.90;;;;;;5030752;28;20064;-85
2021/04/24 02:22:14;;;;;;;27.48;9.77;;;4.00;99.90;;;;;;5030569;28;20124;-85
2021/04/24 02:24:47;;;;;;;21.58;8.38;;;3.90;99.90;;;;;;5052159;28;20099;-85
2021/04/24 02:27:13;;;;;;;23.65;9.45;;;3.90;99.90;;;;;;5028007;28;20103;-85
2021/04/24 02:29:42;;;;;;;22.77;8.70;;;3.90;99.90;;;;;;5035469;28;20053;-85
2021/04/24 02:32:11;;;;;;;19.23;8.57;;;3.90;99.90;;;;;;5033602;28;20076;-85
2021/04/24 02:34:39;;;;;;;21.85;9.40;;;3.90;99.90;;;;;;5032344;28;20053;-84
2021/04/24 02:37:06;;;;;;;23.05;8.88;;;3.80;99.90;;;;;;5030727;28;20093;-85
2021/04/24 02:39:35;;;;;;;21.35;9.00;;;3.80;99.90;;;;;;5031556;28;20069;-85
2021/04/24 02:42:04;;;;;;;20.58;9.15;;;3.80;99.90;;;;;;5028796;28;20049;-85
2021/04/24 02:44:31;;;;;;;19.95;8.20;;;3.80;99.90;;;;;;5044940;28;20525;-85
2021/04/24 02:46:59;;;;;;;20.85;8.18;;;3.70;99.90;;;;;;5043583;28;20054;-85
2021/04/24 02:49:25;;;;;;;17.30;8.18;;;3.70;99.90;;;;;;5017839;28;20052;-84
2021/04/24 02:51:53;;;;;;;19.35;9.02;;;3.70;99.90;;;;;;5025508;28;20046;-86
2021/04/24 02:54:21;;;;;;;27.15;9.98;;;3.70;99.90;;;;;;5028625;28;20050;-85
2021/04/24 02:56:47;;;;;;;28.05;9.27;;;3.70;99.90;;;;;;5030570;28;20060;-85
2021/04/24 02:59:14;;;;;;;20.88;8.15;;;3.60;99.90;;;;;;5044743;28;20069;-85
2021/04/24 03:01:41;;;;;;;22.60;8.27;;;3.60;99.90;;;;;;5028164;28;20509;-85
2021/04/24 03:04:08;;;;;;;21.50;8.50;;;3.60;99.90;;;;;;5029013;28;20125;-85
2021/04/24 03:06:34;;;;;;;20.95;8.23;;;3.60;99.90;;;;;;5031628;28;20393;-85
2021/04/24 03:09:01;;;;;;;19.50;7.82;;;3.50;99.90;;;;;;5028835;28;20041;-86
2021/04/24 03:11:29;;;;;;;22.92;9.20;;;3.50;99.90;;;;;;5027222;28;20053;-85
2021/04/24 03:13:55;;;;;;;19.65;8.32;;;3.50;99.90;;;;;;5028101;28;20464;-86
2021/04/24 03:16:22;;;;;;;29.45;9.95;;;3.40;99.90;;;;;;5028299;28;20045;-85
2021/04/24 03:18:49;;;;;;;18.20;8.10;;;3.40;99.90;;;;;;5044049;28;20093;-85
2021/04/24 03:21:16;;;;;;;18.40;8.43;;;3.40;99.90;;;;;;5031113;28;20168;-85
2021/04/24 03:23:42;;;;;;;25.75;8.63;;;3.30;99.90;;;;;;5026449;28;20056;-85
2021/04/24 03:26:09;;;;;;;24.95;7.78;;;3.30;99.90;;;;;;5029131;28;20113;-84
2021/04/24 03:28:35;;;;;;;24.45;8.10;;;3.30;99.90;;;;;;5030706;28;20141;-85
2021/04/24 03:31:01;;;;;;;20.48;8.02;;;3.30;99.90;;;;;;5027977;28;20065;-85
2021/04/24 03:33:27;;;;;;;25.35;8.60;;;3.20;99.90;;;;;;5029089;28;20130;-85
2021/04/24 03:35:54;;;;;;;20.90;8.95;;;3.20;99.90;;;;;;5028406;28;20061;-85
2021/04/24 03:38:20;;;;;;;24.92;8.15;;;3.20;99.90;;;;;;5031829;28;20061;-85
2021/04/24 03:40:47;;;;;;;16.05;6.95;;;3.20;99.90;;;;;;5026300;28;20053;-84
2021/04/24 03:43:13;;;;;;;21.35;8.80;;;3.30;99.90;;;;;;5043702;28;20049;-85
2021/04/24 03:45:40;;;;;;;17.27;6.97;;;3.20;99.90;;;;;;5030316;28;20135;-84
2021/04/24 03:48:06;;;;;;;19.17;7.32;;;3.20;99.90;;;;;;5030443;28;20084;-85
2021/04/24 03:50:33;;;;;;;18.42;7.68;;;3.20;99.90;;;;;;5027162;28;20053;-84
2021/04/24 03:52:59;;;;;;;18.00;7.95;;;3.20;99.90;;;;;;5029744;28;20721;-85
2021/04/24 03:55:26;;;;;;;22.58;7.82;;;3.20;99.90;;;;;;5024923;28;20046;-84
2021/04/24 03:57:56;;;;;;;18.52;7.93;;;3.20;99.90;;;;;;5026087;28;20073;-84
2021/04/24 04:00:25;;;;;;;22.13;8.05;;;3.20;99.90;;;;;;5026332;28;20049;-84
2021/04/24 04:02:57;;;;;;;17.00;7.78;;;3.20;99.90;;;;;;5043911;28;20118;-84
2021/04/24 04:05:28;;;;;;;19.00;8.60;;;3.20;99.90;;;;;;5045724;28;20041;-84
2021/04/24 04:07:56;;;;;;;15.52;7.68;;;3.20;99.90;;;;;;5045820;28;20053;-84
2021/04/24 04:10:23;;;;;;;19.67;7.18;;;3.20;99.90;;;;;;5028427;28;20107;-85
2021/04/24 04:12:51;;;;;;;24.88;8.65;;;3.10;99.90;;;;;;5034049;28;20063;-84
2021/04/24 04:15:20;;;;;;;16.20;7.07;;;3.20;99.90;;;;;;5019959;28;20068;-85
2021/04/24 04:18:16;;;;;;;21.23;8.15;;;3.10;99.90;;;;;;5009291;28;20132;-85
2021/04/24 04:20:46;;;;;;;22.20;7.55;;;3.10;99.90;;;;;;5027427;28;20053;-84
2021/04/24 04:23:24;;;;;;;19.58;7.75;;;3.10;99.90;;;;;;5040630;28;20128;-85
2021/04/24 04:25:51;;;;;;;18.13;8.15;;;3.10;99.90;;;;;;5027106;28;20037;-85
2021/04/24 04:28:19;;;;;;;23.73;7.50;;;3.10;99.90;;;;;;5027741;28;20448;-85
2021/04/24 04:30:45;;;;;;;21.60;7.93;;;3.10;99.90;;;;;;5033457;28;20060;-85
2021/04/24 04:33:13;;;;;;;16.73;7.25;;;3.20;99.90;;;;;;5050576;28;20025;-85
2021/04/24 04:35:40;;;;;;;17.30;8.02;;;3.10;99.90;;;;;;5034981;28;20183;-84
2021/04/24 04:38:07;;;;;;;17.75;7.75;;;3.10;99.90;;;;;;5037095;28;20152;-85
2021/04/24 04:40:34;;;;;;;16.40;7.93;;;3.10;99.90;;;;;;5047301;28;20101;-83
2021/04/24 04:43:01;;;;;;;23.77;8.98;;;3.10;99.90;;;;;;5035941;28;20057;-84
2021/04/24 04:45:27;;;;;;;21.65;8.98;;;3.10;99.90;;;;;;5046621;28;20049;-84
2021/04/24 04:47:53;;;;;;;17.80;8.00;;;3.10;99.90;;;;;;5048361;28;20088;-85
2021/04/24 04:50:23;;;;;;;19.17;8.68;;;3.10;99.90;;;;;;5028533;28;20046;-84
2021/04/24 04:52:50;;;;;;;27.95;8.18;;;3.10;99.90;;;;;;5019377;28;20065;-83
2021/04/24 04:55:16;;;;;;;22.13;8.30;;;3.10;99.90;;;;;;5020236;28;20041;-85
2021/04/24 04:57:45;;;;;;;22.92;8.02;;;3.20;99.90;;;;;;5027069;28;20197;-84
2021/04/24 05:00:14;;;;;;;26.27;7.63;;;3.20;99.90;;;;;;5015347;28;20065;-84
2021/04/24 05:02:42;;;;;;;22.55;8.43;;;3.20;99.90;;;;;;5044313;28;20132;-84
2021/04/24 05:05:09;;;;;;;22.50;8.30;;;3.30;99.90;;;;;;5047928;28;20046;-84
2021/04/24 05:07:36;;;;;;;25.20;7.68;;;3.30;99.90;;;;;;5024914;28;20083;-84
2021/04/24 05:10:19;;;;;;;23.00;7.45;;;3.40;99.90;;;;;;5028541;28;20061;-84
2021/04/24 05:12:46;;;;;;;21.17;7.38;;;3.40;99.90;;;;;;5021121;28;20096;-85
2021/04/24 05:15:13;;;;;;;19.33;7.25;;;3.50;99.90;;;;;;5047161;28;20049;-85
2021/04/24 05:17:39;;;;;;;20.17;8.85;;;3.60;99.90;;;;;;5012375;28;20171;-85
2021/04/24 05:20:08;;;;;;;19.80;8.15;;;3.70;99.90;;;;;;5025374;28;20489;-86
2021/04/24 05:22:35;;;;;;;24.35;8.38;;;3.80;99.90;;;;;;5047191;28;20049;-86
2021/04/24 05:25:03;;;;;;;16.70;8.35;;;4.00;99.90;;;;;;5005585;28;20049;-85
2021/04/24 05:27:29;;;;;;;20.65;8.05;;;4.10;99.90;;;;;;5015688;28;20117;-85
2021/04/24 05:29:58;;;;;;;17.90;8.00;;;4.20;99.90;;;;;;5026488;28;20080;-85
2021/04/24 05:32:25;;;;;;;23.85;9.23;;;4.40;99.90;;;;;;5008298;28;20063;-85
2021/04/24 05:34:52;;;;;;;23.35;8.38;;;4.50;99.90;;;;;;5016027;28;20049;-85
2021/04/24 05:37:19;;;;;;;22.98;9.48;;;4.70;99.90;;;;;;5018369;28;20058;-86
2021/04/24 05:39:49;;;;;;;21.38;10.05;;;4.80;99.90;;;;;;4993610;28;20057;-85
2021/04/24 05:42:26;;;;;;;25.55;10.75;;;5.00;99.90;;;;;;5037432;28;20061;-87
2021/04/24 05:44:53;;;;;;;18.33;8.85;;;5.20;99.90;;;;;;5019305;28;20045;-87
2021/04/24 05:47:21;;;;;;;19.92;9.05;;;5.40;99.90;;;;;;4990520;28;20041;-87
2021/04/24 05:49:51;;;;;;;21.55;8.32;;;5.70;99.90;;;;;;5025253;28;20056;-86
2021/04/24 05:52:23;;;;;;;24.75;8.40;;;5.80;99.90;;;;;;4999095;28;20126;-84
2021/04/24 05:54:51;;;;;;;20.52;8.75;;;6.10;99.90;;;;;;4958391;28;20045;-84
2021/04/24 05:57:30;;;;;;;22.23;9.35;;;6.30;99.90;;;;;;4978421;28;20508;-84
2021/04/24 05:59:58;;;;;;;15.00;7.97;;;6.40;99.90;;;;;;4979599;28;20045;-83
2021/04/24 06:02:25;;;;;;;15.25;7.47;;;6.50;99.90;;;;;;5021679;28;20057;-83
2021/04/24 06:04:52;;;;;;;18.60;8.30;;;6.60;99.90;;;;;;5030253;28;20051;-84
2021/04/24 06:07:24;;;;;;;15.68;7.43;;;6.80;99.90;;;;;;4997219;28;20056;-84
2021/04/24 06:09:50;;;;;;;17.08;7.32;;;6.90;99.90;;;;;;5006918;28;20053;-83
2021/04/24 06:12:16;;;;;;;15.82;7.38;;;7.00;99.90;;;;;;4989869;28;20054;-84
2021/04/24 06:14:43;;;;;;;16.33;7.00;;;7.10;99.90;;;;;;5019452;28;20081;-84
2021/04/24 06:17:17;;;;;;;14.52;6.72;;;7.30;99.90;;;;;;4991325;28;20109;-84
2021/04/24 06:20:07;;;;;;;13.48;6.72;;;7.50;99.90;;;;;;4976914;28;20064;-85
2021/04/24 06:22:35;;;;;;;16.83;6.63;;;7.80;99.90;;;;;;5027699;28;20053;-85
2021/04/24 06:25:03;;;;;;;15.18;6.85;;;8.00;99.90;;;;;;5031288;28;20050;-85
2021/04/24 06:27:30;;;;;;;16.23;6.30;;;8.30;99.90;;;;;;5039367;28;20045;-85
2021/04/24 06:29:56;;;;;;;12.88;6.43;;;8.50;99.90;;;;;;4955252;28;20054;-85
2021/04/24 06:32:22;;;;;;;15.38;6.85;;;8.70;99.90;;;;;;5007024;28;20057;-84
2021/04/24 06:34:49;;;;;;;11.00;5.38;;;8.80;99.90;;;;;;5027103;28;20561;-85
2021/04/24 06:37:15;;;;;;;12.52;5.75;;;8.80;99.90;;;;;;5001777;28;20088;-85
2021/04/24 06:39:42;;;;;;;11.23;5.55;;;8.80;99.90;;;;;;5023648;28;20060;-83
2021/04/24 06:42:12;;;;;;;13.05;5.93;;;8.80;99.90;;;;;;5024297;28;20053;-85
2021/04/24 06:44:38;;;;;;;11.10;5.53;;;8.80;99.90;;;;;;5008300;28;20057;-84
2021/04/24 06:47:05;;;;;;;10.75;5.25;;;8.90;99.90;;;;;;4989680;28;20046;-84
2021/04/24 06:49:31;;;;;;;10.50;4.95;;;9.00;99.90;;;;;;5009256;28;20059;-82
2021/04/24 06:51:57;;;;;;;9.95;4.95;;;9.00;99.90;;;;;;5042183;28;20050;-82
2021/04/24 06:54:24;;;;;;;9.40;5.38;;;9.10;99.90;;;;;;5028751;28;20045;-81
2021/04/24 06:56:50;;;;;;;10.25;4.93;;;9.20;99.90;;;;;;5027063;28;20079;-83
2021/04/24 06:59:16;;;;;;;14.85;5.90;;;9.40;99.90;;;;;;5038688;28;20071;-84
2021/04/24 07:01:42;;;;;;;12.13;5.90;;;9.60;99.90;;;;;;5021398;28;20049;-83
2021/04/24 07:04:09;;;;;;;10.45;4.97;;;9.70;99.90;;;;;;5016216;28;20054;-82
2021/04/24 07:06:35;;;;;;;9.65;5.68;;;9.90;99.90;;;;;;5025457;28;20084;-83
2021/04/24 07:09:02;;;;;;;10.50;5.32;;;10.00;99.90;;;;;;5027641;28;20077;-84
2021/04/24 07:11:32;;;;;;;10.77;5.70;;;10.10;99.90;;;;;;5013629;28;20154;-84
2021/04/24 07:13:59;;;;;;;6.45;4.18;;;10.10;99.90;;;;;;5022659;28;20105;-83
2021/04/24 07:16:25;;;;;;;10.23;4.72;;;10.10;99.90;;;;;;5022103;28;20081;-83
2021/04/24 07:18:53;;;;;;;8.70;5.35;;;10.10;99.90;;;;;;5012780;28;20046;-83
2021/04/24 07:21:20;;;;;;;9.57;5.15;;;10.10;99.90;;;;;;5040204;28;20057;-83
2021/04/24 07:23:47;;;;;;;12.30;5.47;;;10.00;99.90;;;;;;5016639;28;20041;-83
2021/04/24 07:26:14;;;;;;;12.52;5.47;;;10.00;99.90;;;;;;5013533;28;20054;-82
2021/04/24 07:28:40;;;;;;;8.23;5.10;;;10.10;99.90;;;;;;5030089;28;20049;-83
2021/04/24 07:31:08;;;;;;;10.70;5.20;;;10.20;99.90;;;;;;5005066;28;20091;-83
2021/04/24 07:33:34;;;;;;;12.90;8.18;;;10.30;99.90;;;;;;5031408;28;20068;-80
2021/04/24 07:36:01;;;;;;;10.15;5.80;;;10.40;99.90;;;;;;5021502;28;20053;-81
2021/04/24 07:38:27;;;;;;;14.57;7.05;;;10.40;99.90;;;;;;5031188;28;20403;-82
2021/04/24 07:40:53;;;;;;;13.13;7.97;;;10.60;99.90;;;;;;5043932;28;20046;-82
2021/04/24 07:43:20;;;;;;;10.70;6.45;;;10.70;99.90;;;;;;5029514;28;20053;-81
2021/04/24 07:45:46;;;;;;;10.38;4.45;;;10.80;99.90;;;;;;5028362;28;20049;-82
2021/04/24 07:48:17;;;;;;;11.00;5.50;;;10.80;99.90;;;;;;5030067;28;20060;-81
2021/04/24 07:50:43;;;;;;;15.45;5.55;;;10.90;99.90;;;;;;5027091;28;20478;-82
2021/04/24 07:53:09;;;;;;;10.23;4.55;;;11.00;99.90;;;;;;5027487;28;20076;-81
2021/04/24 07:55:36;;;;;;;10.07;4.63;;;11.40;99.90;;;;;;5024093;28;20068;-81
2021/04/24 07:58:03;;;;;;;13.60;5.57;;;11.70;99.90;;;;;;5029893;28;20093;-85
2021/04/24 08:00:32;;;;;;;7.68;4.28;;;11.80;99.90;;;;;;5016725;28;20053;-84
2021/04/24 08:02:58;;;;;;;8.77;4.70;;;11.90;99.90;;;;;;5020502;28;20053;-83
2021/04/24 08:05:25;;;;;;;7.90;4.60;;;12.00;99.90;;;;;;5027138;28;20509;-83
2021/04/24 08:08:00;;;;;;;9.27;5.15;;;11.90;99.90;;;;;;5022139;28;20045;-82
2021/04/24 08:10:27;;;;;;;8.05;4.32;;;12.00;99.90;;;;;;5020161;28;20072;-85
2021/04/24 08:12:54;;;;;;;7.95;4.70;;;12.00;98.30;;;;;;5006913;28;20107;-82
2021/04/24 08:15:22;;;;;;;11.10;4.32;;;12.00;99.30;;;;;;5034580;28;20069;-81
2021/04/24 08:17:48;;;;;;;7.05;4.40;;;12.00;97.90;;;;;;5025516;28;20072;-82
2021/04/24 08:20:16;;;;;;;9.23;4.93;;;12.00;98.20;;;;;;5030128;28;20072;-82
2021/04/24 08:23:31;;;;;;;9.60;4.57;;;11.90;99.90;;;;;;4998404;28;20057;-81
2021/04/24 08:26:21;;;;;;;11.25;4.68;;;11.80;99.60;;;;;;4952093;28;20053;-83
2021/04/24 08:28:49;;;;;;;8.75;4.93;;;11.80;99.90;;;;;;5042665;28;22363;-82
2021/04/24 08:31:16;;;;;;;12.93;5.47;;;11.70;99.80;;;;;;5040812;28;20125;-82
2021/04/24 08:33:42;;;;;;;8.90;5.28;;;11.80;99.90;;;;;;5031167;28;20065;-83
2021/04/24 08:36:09;;;;;;;10.43;5.05;;;11.90;99.90;;;;;;5025266;28;20460;-83
2021/04/24 08:38:36;;;;;;;10.32;4.97;;;12.20;99.90;;;;;;5008732;28;20125;-84
2021/04/24 08:41:06;;;;;;;7.90;5.05;;;12.30;99.30;;;;;;5028120;28;20053;-83
2021/04/24 08:43:37;;;;;;;14.80;5.57;;;12.50;99.00;;;;;;5032201;28;20132;-84
2021/04/24 08:46:07;;;;;;;7.82;4.30;;;12.70;98.70;;;;;;5030040;28;20105;-82
2021/04/24 08:48:34;;;;;;;9.68;5.80;;;13.00;96.40;;;;;;5013557;28;20832;-83
2021/04/24 08:51:01;;;;;;;10.70;4.65;;;13.10;95.20;;;;;;5041144;28;20113;-82
2021/04/24 08:53:27;;;;;;;6.32;3.78;;;13.20;93.60;;;;;;5026214;28;20076;-82
2021/04/24 08:55:54;;;;;;;12.38;5.10;;;13.20;93.10;;;;;;5039531;28;20065;-82
2021/04/24 08:58:20;;;;;;;6.55;3.95;;;13.20;93.10;;;;;;5025452;28;20073;-84
2021/04/24 09:00:50;;;;;;;7.40;4.38;;;13.30;92.00;;;;;;5030582;28;20079;-84
2021/04/24 09:03:21;;;;;;;8.57;4.55;;;13.40;90.10;;;;;;5015768;28;20111;-83
2021/04/24 09:05:53;;;;;;;12.45;4.80;;;13.30;90.20;;;;;;5023731;28;20478;-82
2021/04/24 09:08:30;;;;;;;8.45;4.45;;;13.40;92.10;;;;;;5026232;28;20175;-85
2021/04/24 09:11:00;;;;;;;8.43;4.47;;;13.50;91.20;;;;;;5020525;28;20100;-84
2021/04/24 09:13:28;;;;;;;11.63;5.10;;;13.50;90.80;;;;;;5008110;28;20378;-83
2021/04/24 09:15:56;;;;;;;10.18;4.30;;;13.50;90.40;;;;;;5010162;28;20140;-82
2021/04/24 09:18:24;;;;;;;8.70;4.35;;;13.60;90.50;;;;;;5016837;28;20057;-82
2021/04/24 09:20:52;;;;;;;7.30;4.18;;;13.60;88.40;;;;;;5036765;28;20107;-83
2021/04/24 09:23:39;;;;;;;7.32;4.80;;;13.60;87.50;;;;;;5028349;28;20112;-83
2021/04/24 09:26:09;;;;;;;8.07;4.38;;;13.60;87.90;;;;;;5022198;28;20805;-80
2021/04/24 09:28:47;;;;;;;8.05;4.57;;;13.60;87.70;;;;;;5031688;28;20054;-80
2021/04/24 09:31:16;;;;;;;9.40;4.60;;;13.50;90.30;;;;;;5034177;28;20091;-83
2021/04/24 09:33:50;;;;;;;8.30;4.03;;;13.70;89.50;;;;;;5040992;28;20049;-81
2021/04/24 09:36:18;;;;;;;7.03;3.90;;;13.90;86.40;;;;;;5023033;28;20497;-82
2021/04/24 09:38:49;;;;;;;8.60;4.30;;;14.00;83.50;;;;;;5024171;28;20704;-80
2021/04/24 09:41:17;;;;;;;7.43;4.00;;;14.00;82.70;;;;;;5019442;28;20133;-81
2021/04/24 09:43:48;;;;;;;9.18;4.28;;;14.10;82.10;;;;;;5020733;28;20477;-80
2021/04/24 09:46:15;;;;;;;8.63;4.30;;;14.20;80.40;;;;;;5013523;28;20140;-82
2021/04/24 09:48:41;;;;;;;6.75;3.17;;;14.20;81.90;;;;;;5026230;28;20555;-84
2021/04/24 09:51:13;;;;;;;6.43;3.13;;;14.20;76.90;;;;;;5020731;28;20049;-84
2021/04/24 09:53:40;;;;;;;8.55;3.33;;;14.10;75.70;;;;;;5013994;28;20069;-84
2021/04/24 09:56:13;;;;;;;8.60;3.97;;;14.10;75.90;;;;;;5006043;28;20049;-84
2021/04/24 09:58:41;;;;;;;5.15;3.22;;;14.20;77.20;;;;;;5026980;28;20115;-82
2021/04/24 10:01:24;;;;;;;9.05;3.90;;;14.30;76.50;;;;;;5021798;28;20133;-82
2021/04/24 10:03:53;;;;;;;7.20;3.78;;;14.40;75.30;;;;;;5022735;28;20049;-83
2021/04/24 10:06:34;;;;;;;9.13;4.90;;;14.50;78.10;;;;;;5044012;28;20076;-84
2021/04/24 10:09:12;;;;;;;8.32;4.53;;;14.50;74.90;;;;;;5009941;28;20521;-83
2021/04/24 10:11:42;;;;;;;15.60;4.50;;;14.50;76.10;;;;;;5016711;28;20049;-83
2021/04/24 10:14:29;;;;;;;12.60;4.75;;;14.60;76.50;;;;;;5010932;28;20089;-83
2021/04/24 10:16:57;;;;;;;9.88;3.85;;;14.80;76.40;;;;;;5011684;28;20128;-84
2021/04/24 10:19:25;;;;;;;8.70;3.95;;;14.90;72.80;;;;;;5027952;28;20045;-85
2021/04/24 10:21:52;;;;;;;7.90;4.00;;;15.00;74.50;;;;;;5034172;28;20049;-80
2021/04/24 10:24:22;;;;;;;9.85;3.83;;;15.10;71.30;;;;;;5045519;28;20121;-84
2021/04/24 10:26:48;;;;;;;8.80;3.47;;;15.20;70.60;;;;;;5021940;28;20073;-83
2021/04/24 10:29:16;;;;;;;6.35;3.97;;;15.20;70.30;;;;;;5016248;28;20130;-83
2021/04/24 10:31:43;;;;;;;9.60;3.65;;;15.10;71.70;;;;;;5010576;28;20117;-85
2021/04/24 10:34:10;;;;;;;8.60;2.97;;;15.10;68.40;;;;;;5009369;28;20132;-83
2021/04/24 10:36:38;;;;;;;8.38;3.30;;;15.20;69.20;;;;;;5040054;28;20072;-85
2021/04/24 10:39:17;;;;;;;4.75;2.70;;;15.20;67.20;;;;;;5011975;28;20069;-84
2021/04/24 10:42:07;;;;;;;6.13;3.25;;;15.30;65.90;;;;;;5009493;28;20109;-84
2021/04/24 10:44:49;;;;;;;6.07;3.20;;;15.30;67.10;;;;;;5017335;28;20072;-85
2021/04/24 10:47:15;;;;;;;8.48;2.95;;;15.40;67.40;;;;;;5020166;28;20128;-84
2021/04/24 10:49:54;;;;;;;7.07;2.40;;;15.60;64.80;;;;;;5039744;28;20064;-85
2021/04/24 10:52:23;;;;;;;7.38;3.45;;;15.70;64.10;;;;;;5021528;28;20063;-84
2021/04/24 10:55:17;;;;;;;5.55;3.40;;;15.60;65.70;;;;;;5009512;28;20052;-85
2021/04/24 10:57:59;;;;;;;8.90;3.90;;;15.70;67.10;;;;;;5022602;28;20989;-85
2021/04/24 11:00:33;;;;;;;9.68;4.20;;;15.90;65.00;;;;;;5018453;28;20056;-86
2021/04/24 11:03:00;;;;;;;;;;;16.00;64.70;;;;;;4986327;28;20096;-85
2021/04/24 11:05:36;;;;;;;5.25;3.00;;;16.10;66.10;;;;;;5023849;28;19931;-86
2021/04/24 11:08:23;;;;;;;7.07;3.30;;;16.30;64.80;;;;;;4999459;28;20045;-85
2021/04/24 11:11:02;;;;;;;8.77;3.63;;;16.40;64.40;;;;;;5019907;28;20076;-84
2021/04/24 11:13:47;;;;;;;5.25;2.63;;;16.60;62.30;;;;;;5020709;28;20484;-83
2021/04/24 11:16:17;;;;;;;8.18;2.92;;;16.60;58.50;;;;;;4996708;28;20054;-87
2021/04/24 11:18:48;;;;;;;7.85;3.63;;;16.50;59.20;;;;;;5024287;28;20392;-85
2021/04/24 11:21:17;;;;;;;8.23;3.15;;;16.40;60.00;;;;;;5023347;28;20118;-83
2021/04/24 11:23:51;;;;;;;9.82;3.38;;;16.30;61.50;;;;;;5024743;28;20125;-83
2021/04/24 11:26:45;;;;;;;7.43;3.15;;;16.30;61.30;;;;;;5021062;28;20108;-84
2021/04/24 11:29:17;;;;;;;6.07;3.35;;;16.40;60.80;;;;;;4991070;28;20077;-85
2021/04/24 11:31:45;;;;;;;7.30;3.45;;;16.40;60.90;;;;;;5009141;28;20049;-84
2021/04/24 11:34:36;;;;;;;6.18;2.25;;;16.60;58.80;;;;;;5024749;28;20123;-85
2021/04/24 11:37:15;;;;;;;8.43;2.55;;;16.50;56.30;;;;;;5037769;28;20076;-86
2021/04/24 11:40:04;;;;;;;8.60;3.00;;;16.30;57.40;;;;;;5027693;28;20076;-85
2021/04/24 11:42:33;;;;;;;8.52;2.85;;;16.20;56.60;;;;;;5033475;28;20053;-84
2021/04/24 11:45:00;;;;;;;12.63;2.88;;;16.20;57.40;;;;;;5006676;28;20056;-85
2021/04/24 11:47:49;;;;;;;8.95;3.92;;;16.20;58.80;;;;;;5044148;28;20096;-84
2021/04/24 11:50:18;;;;;;;12.63;2.92;;;16.30;57.20;;;;;;5031708;28;20535;-85
2021/04/24 11:52:57;;;;;;;5.07;2.47;;;16.50;59.60;;;;;;5035865;28;20057;-84
2021/04/24 11:55:25;;;;;;;4.13;2.47;;;17.00;57.00;;;;;;5047605;28;20042;-85
2021/04/24 11:58:11;;;;;;;5.28;1.98;;;17.30;54.30;;;;;;5025555;28;20053;-86
2021/04/24 12:00:39;;;;;;;7.78;1.83;;;17.50;53.60;;;;;;5017730;28;20075;-86
2021/04/24 12:03:08;;;;;;;6.25;2.50;;;17.80;54.30;;;;;;5025460;28;20078;-88
2021/04/24 12:05:45;;;;;;;3.97;1.75;;;18.20;52.30;;;;;;5008305;28;20060;-86
2021/04/24 12:08:21;;;;;;;8.07;2.20;;;18.40;51.60;;;;;;5029613;28;20056;-85
2021/04/24 12:10:49;;;;;;;7.55;2.55;;;18.50;51.20;;;;;;5007952;28;20088;-88
2021/04/24 12:13:15;;;;;;;5.03;2.20;;;18.90;51.00;;;;;;4987031;28;20057;-86
2021/04/24 12:15:50;;;;;;;7.28;2.50;;;19.30;48.90;;;;;;5029224;28;20045;-87
2021/04/24 12:18:16;;;;;;;4.97;2.22;;;19.80;48.80;;;;;;5017263;28;20107;-87
2021/04/24 12:20:46;;;;;;;7.00;2.08;;;20.40;45.60;;;;;;4989095;28;20062;-86
2021/04/24 12:23:49;;;;;;;5.22;2.30;;;20.40;44.60;;;;;;4909580;28;20167;-88
2021/04/24 12:26:36;;;;;;;6.65;2.00;;;20.30;44.20;;;;;;4911425;28;20079;-86
2021/04/24 12:29:13;;;;;;;3.72;1.77;;;20.40;44.20;;;;;;4990451;28;20112;-88
2021/04/24 12:31:39;;;;;;;5.63;1.95;;;20.50;42.30;;;;;;5005147;28;20119;-85
2021/04/24 12:34:05;;;;;;;5.28;1.30;;;20.50;43.10;;;;;;5020569;28;20473;-85
2021/04/24 12:36:39;;;;;;;5.85;1.83;;;20.70;41.50;;;;;;5015874;28;20100;-86
2021/04/24 12:39:16;;;;;;;3.90;1.83;;;20.80;42.40;;;;;;5011729;28;20740;-85
2021/04/24 12:42:10;;;;;;;4.82;1.60;;;21.10;42.70;;;;;;4982343;28;20586;-86
2021/04/24 12:44:38;;;;;;;6.85;2.03;;;21.50;40.30;;;;;;4992618;28;20479;-88
2021/04/24 12:47:18;;;;;;;7.95;1.45;;;21.60;39.30;;;;;;4996793;28;20050;-90
2021/04/24 12:50:14;;;;;;;3.70;1.60;;;21.60;39.10;;;;;;4966936;28;20049;-88
2021/04/24 12:52:46;;;;;;;3.92;1.10;;;21.50;38.70;;;;;;4940148;28;20050;-90
2021/04/24 12:55:14;;;;;;;4.07;1.40;;;21.60;38.30;;;;;;5014550;28;20061;-89
2021/04/24 12:57:54;;;;;;;6.78;1.88;;;22.00;40.20;;;;;;4973485;28;20080;-89
2021/04/24 13:00:26;;;;;;;5.10;1.63;;;22.60;37.10;;;;;;5004922;28;20120;-89